Time;durP1;ratioP1;P1;durP2;ratioP2;P2;SDS_P1;SDS_P2;PMS_P1;PMS_P2;Temp;Humidity;BMP_temperature;BMP_pressure;BME280_temperature;BME280_humidity;BME280_pressure;Samples;Min_cycle;Max_cycle;Signal;HPM_P1;HPM_P2
2023/08/26 00:00:31;;;;;;;18.52;10.52;;;;;;;;;;4996310;28;20022;-70
2023/08/26 00:02:57;;;;;;;18.55;10.40;;;;;;;;;;4996777;28;20392;-70
2023/08/26 00:05:23;;;;;;;13.45;10.15;;;;;;;;;;4996676;28;20018;-69
2023/08/26 00:07:49;;;;;;;12.95;10.68;;;;;;;;;;5000869;28;20403;-70
2023/08/26 00:10:15;;;;;;;14.95;10.40;;;;;;;;;;4998744;28;20033;-71
2023/08/26 00:12:41;;;;;;;11.43;9.70;;;;;;;;;;5001523;28;20034;-69
2023/08/26 00:15:07;;;;;;;16.80;10.35;;;;;;;;;;4997314;28;20025;-71
2023/08/26 00:17:33;;;;;;;15.80;9.75;;;;;;;;;;5003334;28;20120;-70
2023/08/26 00:19:58;;;;;;;17.63;10.65;;;;;;;;;;5000579;28;20101;-70
2023/08/26 00:22:24;;;;;;;14.30;9.90;;;;;;;;;;4999525;28;20052;-70
2023/08/26 00:24:50;;;;;;;11.68;8.98;;;;;;;;;;4999835;28;20113;-70
2023/08/26 00:27:16;;;;;;;9.48;7.45;;;;;;;;;;5004759;28;20081;-70
2023/08/26 00:29:43;;;;;;;9.80;7.65;;;;;;;;;;5004059;28;20057;-70
2023/08/26 00:32:09;;;;;;;10.80;7.78;;;;;;;;;;5015547;28;20064;-71
2023/08/26 00:34:35;;;;;;;12.13;7.97;;;;;;;;;;5006307;28;20021;-69
2023/08/26 00:37:01;;;;;;;14.07;7.93;;;;;;;;;;4999918;28;20038;-69
2023/08/26 00:39:26;;;;;;;10.55;7.95;;;;;;;;;;5013058;28;20112;-70
2023/08/26 00:41:52;;;;;;;10.57;8.20;;;;;;;;;;5009099;28;20068;-69
2023/08/26 00:44:18;;;;;;;13.02;8.45;;;;;;;;;;5013138;28;20030;-70
2023/08/26 00:46:45;;;;;;;12.38;9.23;;;;;;;;;;5020505;28;20092;-69
2023/08/26 00:49:11;;;;;;;11.65;8.30;;;;;;;;;;5023258;28;20104;-70
2023/08/26 00:51:38;;;;;;;12.60;8.60;;;;;;;;;;5005959;28;20468;-69
2023/08/26 00:54:07;;;;;;;11.88;8.52;;;;;;;;;;5003979;28;20084;-70
2023/08/26 00:56:34;;;;;;;12.70;8.23;;;;;;;;;;5003819;28;20092;-70
2023/08/26 00:59:01;;;;;;;13.85;8.68;;;;;;;;;;5006487;28;20057;-69
2023/08/26 01:01:31;;;;;;;12.07;10.05;;;;;;;;;;5003316;28;20030;-70
2023/08/26 01:03:56;;;;;;;15.10;10.60;;;;;;;;;;5002463;28;20467;-70
2023/08/26 01:06:22;;;;;;;18.35;10.60;;;;;;;;;;5007011;28;20030;-70
2023/08/26 01:08:49;;;;;;;15.60;10.25;;;;;;;;;;5009384;28;20048;-70
2023/08/26 01:11:39;;;;;;;14.50;9.85;;;;;;;;;;5012873;28;20021;-70
2023/08/26 01:14:16;;;;;;;15.70;10.75;;;;;;;;;;5026658;28;20051;-71
2023/08/26 01:16:42;;;;;;;17.85;10.70;;;;;;;;;;5008976;28;20100;-71
2023/08/26 01:19:29;;;;;;;21.80;11.52;;;;;;;;;;5017963;28;20018;-71
2023/08/26 01:21:58;;;;;;;16.48;10.20;;;;;;;;;;5013691;28;20112;-70
2023/08/26 01:24:25;;;;;;;13.48;11.25;;;;;;;;;;5008404;28;20026;-70
2023/08/26 01:26:52;;;;;;;18.67;11.48;;;;;;;;;;5009921;28;20044;-70
2023/08/26 01:29:18;;;;;;;21.45;11.38;;;;;;;;;;5019227;28;20034;-70
2023/08/26 01:31:47;;;;;;;16.30;12.15;;;;;;;;;;5008884;28;20053;-70
2023/08/26 01:34:17;;;;;;;17.33;11.73;;;;;;;;;;5024793;28;20026;-70
2023/08/26 01:36:44;;;;;;;22.33;13.30;;;;;;;;;;5006677;28;20038;-70
2023/08/26 01:39:13;;;;;;;18.60;12.55;;;;;;;;;;5007514;28;20057;-71
2023/08/26 01:41:48;;;;;;;13.30;10.68;;;;;;;;;;5002634;28;20027;-70
2023/08/26 01:44:14;;;;;;;14.50;11.05;;;;;;;;;;5018309;28;20487;-70
2023/08/26 01:46:40;;;;;;;17.48;11.52;;;;;;;;;;5020525;28;20585;-70
2023/08/26 01:49:06;;;;;;;16.50;10.85;;;;;;;;;;5005539;28;20029;-70
2023/08/26 01:51:33;;;;;;;13.98;11.20;;;;;;;;;;5018434;28;20033;-69
2023/08/26 01:53:59;;;;;;;16.90;11.25;;;;;;;;;;5002637;28;20034;-70
2023/08/26 01:56:25;;;;;;;14.07;10.35;;;;;;;;;;5004661;28;20120;-70
2023/08/26 01:58:50;;;;;;;13.75;10.40;;;;;;;;;;5004151;28;20128;-70
2023/08/26 02:01:16;;;;;;;16.73;10.43;;;;;;;;;;5026558;28;20025;-71
2023/08/26 02:03:43;;;;;;;17.60;10.85;;;;;;;;;;5035458;28;20060;-70
2023/08/26 02:06:09;;;;;;;10.60;9.15;;;;;;;;;;5036060;28;20132;-69
2023/08/26 02:08:35;;;;;;;22.52;13.82;;;;;;;;;;5036605;28;20136;-70
2023/08/26 02:11:01;;;;;;;16.67;11.18;;;;;;;;;;5037939;28;20446;-71
2023/08/26 02:13:28;;;;;;;15.20;11.10;;;;;;;;;;5036391;28;20116;-68
2023/08/26 02:15:55;;;;;;;13.48;10.45;;;;;;;;;;5037613;28;20347;-71
2023/08/26 02:18:20;;;;;;;13.27;10.05;;;;;;;;;;5023944;28;20038;-71
2023/08/26 02:20:48;;;;;;;18.30;10.73;;;;;;;;;;5041952;28;20060;-71
2023/08/26 02:23:15;;;;;;;19.42;12.02;;;;;;;;;;5022865;28;20038;-71
2023/08/26 02:25:41;;;;;;;20.17;12.45;;;;;;;;;;5017144;28;20302;-71
2023/08/26 02:28:08;;;;;;;17.85;10.85;;;;;;;;;;5000037;28;20033;-71
2023/08/26 02:30:34;;;;;;;17.63;11.02;;;;;;;;;;5004626;28;20033;-70
2023/08/26 02:33:02;;;;;;;14.50;10.35;;;;;;;;;;4996710;28;20034;-70
2023/08/26 02:35:30;;;;;;;15.45;10.68;;;;;;;;;;5002366;28;20030;-70
2023/08/26 02:37:55;;;;;;;15.93;10.43;;;;;;;;;;5001633;28;20037;-70
2023/08/26 02:40:22;;;;;;;13.73;10.85;;;;;;;;;;5003722;28;20031;-69
2023/08/26 02:42:48;;;;;;;21.42;11.70;;;;;;;;;;5004315;28;20037;-71
2023/08/26 02:45:13;;;;;;;12.88;10.32;;;;;;;;;;5020864;28;20025;-70
2023/08/26 02:47:39;;;;;;;14.02;10.85;;;;;;;;;;5006017;28;20407;-69
2023/08/26 02:50:05;;;;;;;14.30;9.85;;;;;;;;;;5005327;28;20029;-70
2023/08/26 02:52:31;;;;;;;15.98;10.02;;;;;;;;;;5020274;28;20030;-71
2023/08/26 02:54:57;;;;;;;18.35;10.07;;;;;;;;;;5005119;28;20022;-69
2023/08/26 02:57:24;;;;;;;14.43;8.98;;;;;;;;;;5006042;28;20408;-70
2023/08/26 02:59:50;;;;;;;13.50;9.88;;;;;;;;;;5008054;28;20046;-70
2023/08/26 03:02:16;;;;;;;12.40;10.02;;;;;;;;;;5013814;28;20035;-70
2023/08/26 03:04:45;;;;;;;14.13;9.43;;;;;;;;;;5015754;28;20131;-70
2023/08/26 03:07:12;;;;;;;14.77;9.90;;;;;;;;;;5001606;28;20133;-70
2023/08/26 03:09:38;;;;;;;15.00;9.48;;;;;;;;;;5000835;28;20424;-70
2023/08/26 03:12:04;;;;;;;14.43;8.90;;;;;;;;;;5019805;28;20124;-70
2023/08/26 03:14:30;;;;;;;14.60;9.45;;;;;;;;;;5005421;28;20498;-69
2023/08/26 03:16:56;;;;;;;15.32;9.65;;;;;;;;;;5024856;28;20045;-70
2023/08/26 03:19:22;;;;;;;11.05;8.55;;;;;;;;;;5023297;28;20021;-71
2023/08/26 03:21:48;;;;;;;12.70;8.95;;;;;;;;;;5031967;28;20030;-70
2023/08/26 03:24:19;;;;;;;16.20;11.75;;;;;;;;;;5018992;28;20021;-69
2023/08/26 03:26:47;;;;;;;15.27;9.82;;;;;;;;;;5016800;28;20037;-69
2023/08/26 03:29:13;;;;;;;14.00;9.60;;;;;;;;;;5021420;28;20403;-71
2023/08/26 03:31:39;;;;;;;12.93;11.13;;;;;;;;;;5023485;28;20053;-69
2023/08/26 03:34:07;;;;;;;19.17;10.27;;;;;;;;;;5023341;28;20028;-72
2023/08/26 03:36:33;;;;;;;14.43;10.02;;;;;;;;;;5015169;28;20029;-71
2023/08/26 03:38:59;;;;;;;16.67;9.38;;;;;;;;;;5028485;28;20026;-72
2023/08/26 03:41:25;;;;;;;12.80;9.02;;;;;;;;;;5020376;28;20116;-71
2023/08/26 03:43:50;;;;;;;17.65;9.02;;;;;;;;;;5017731;28;20510;-72
2023/08/26 03:46:16;;;;;;;13.40;9.70;;;;;;;;;;5014655;28;20030;-71
2023/08/26 03:48:42;;;;;;;15.27;9.07;;;;;;;;;;5019685;28;20033;-71
2023/08/26 03:51:08;;;;;;;15.98;8.38;;;;;;;;;;5019621;28;20029;-71
2023/08/26 03:53:33;;;;;;;15.15;9.45;;;;;;;;;;5011278;28;20053;-71
2023/08/26 03:56:01;;;;;;;11.65;9.05;;;;;;;;;;5021072;28;20044;-70
2023/08/26 03:58:27;;;;;;;12.45;9.60;;;;;;;;;;5030054;28;20021;-71
2023/08/26 04:01:04;;;;;;;12.27;8.88;;;;;;;;;;5023813;28;20387;-71
2023/08/26 04:03:30;;;;;;;16.02;8.90;;;;;;;;;;5023710;28;20348;-71
2023/08/26 04:06:04;;;;;;;18.70;9.68;;;;;;;;;;5015263;28;20041;-71
2023/08/26 04:08:31;;;;;;;15.57;9.68;;;;;;;;;;5011610;28;20454;-69
2023/08/26 04:10:58;;;;;;;12.65;9.35;;;;;;;;;;5004769;28;20072;-71
2023/08/26 04:13:27;;;;;;;16.08;9.25;;;;;;;;;;5034452;28;20096;-71
2023/08/26 04:15:55;;;;;;;20.85;10.38;;;;;;;;;;5035021;28;20073;-72
2023/08/26 04:18:23;;;;;;;17.25;10.55;;;;;;;;;;5012539;28;20053;-72
2023/08/26 04:20:49;;;;;;;17.63;10.25;;;;;;;;;;5022898;28;20150;-71
2023/08/26 04:23:15;;;;;;;23.20;10.88;;;;;;;;;;5022085;28;20025;-70
2023/08/26 04:25:42;;;;;;;17.92;10.07;;;;;;;;;;5031871;28;20475;-71
2023/08/26 04:28:08;;;;;;;18.63;10.63;;;;;;;;;;5023801;28;20033;-72
2023/08/26 04:30:34;;;;;;;22.75;10.82;;;;;;;;;;5022695;28;20017;-71
2023/08/26 04:33:04;;;;;;;21.33;10.95;;;;;;;;;;5023375;28;20017;-70
2023/08/26 04:35:30;;;;;;;20.15;10.75;;;;;;;;;;5005885;28;20436;-71
2023/08/26 04:37:56;;;;;;;20.42;11.20;;;;;;;;;;5016055;28;20029;-70
2023/08/26 04:40:22;;;;;;;17.45;10.63;;;;;;;;;;5011600;28;20530;-70
2023/08/26 04:42:48;;;;;;;17.35;10.20;;;;;;;;;;5017576;28;20033;-72
2023/08/26 04:45:16;;;;;;;18.90;10.95;;;;;;;;;;5015768;28;20030;-70
2023/08/26 04:47:42;;;;;;;21.35;11.30;;;;;;;;;;5014065;28;20030;-70
2023/08/26 04:50:09;;;;;;;19.27;11.18;;;;;;;;;;5023829;28;20022;-71
2023/08/26 04:52:35;;;;;;;18.60;11.48;;;;;;;;;;5021528;28;20049;-71
2023/08/26 04:55:01;;;;;;;20.88;11.18;;;;;;;;;;5020192;28;20487;-70
2023/08/26 04:57:27;;;;;;;25.38;11.88;;;;;;;;;;5016798;28;20079;-72
2023/08/26 04:59:52;;;;;;;20.80;10.38;;;;;;;;;;5022161;28;20108;-72
2023/08/26 05:02:18;;;;;;;17.83;11.25;;;;;;;;;;5005486;28;20264;-72
2023/08/26 05:04:47;;;;;;;18.15;11.70;;;;;;;;;;5023232;28;20036;-72
2023/08/26 05:07:12;;;;;;;17.63;10.82;;;;;;;;;;5015806;28;20040;-70
2023/08/26 05:09:39;;;;;;;15.38;10.63;;;;;;;;;;5016158;28;20022;-70
2023/08/26 05:12:05;;;;;;;15.85;9.88;;;;;;;;;;5015825;28;20108;-70
2023/08/26 05:14:31;;;;;;;24.00;10.02;;;;;;;;;;5010004;28;20391;-70
2023/08/26 05:16:57;;;;;;;18.50;10.23;;;;;;;;;;5014868;28;20048;-71
2023/08/26 05:19:22;;;;;;;20.92;10.70;;;;;;;;;;5017889;28;20025;-70
2023/08/26 05:21:48;;;;;;;18.73;11.18;;;;;;;;;;5021339;28;20089;-70
2023/08/26 05:24:14;;;;;;;17.63;11.27;;;;;;;;;;5005275;28;20026;-70
2023/08/26 05:26:42;;;;;;;21.98;11.23;;;;;;;;;;5018034;28;20030;-69
2023/08/26 05:29:08;;;;;;;28.55;11.80;;;;;;;;;;5025952;28;20025;-70
2023/08/26 05:31:35;;;;;;;20.73;11.05;;;;;;;;;;5019729;28;20037;-70
2023/08/26 05:34:01;;;;;;;21.83;11.18;;;;;;;;;;5021360;28;20029;-70
2023/08/26 05:36:27;;;;;;;20.40;11.52;;;;;;;;;;5019896;28;20124;-70
2023/08/26 05:38:53;;;;;;;20.13;10.93;;;;;;;;;;5019670;28;20033;-70
2023/08/26 05:41:18;;;;;;;21.17;11.45;;;;;;;;;;5015635;28;20301;-70
2023/08/26 05:43:44;;;;;;;25.65;11.68;;;;;;;;;;5021325;28;20494;-70
2023/08/26 05:46:10;;;;;;;21.40;10.75;;;;;;;;;;5021109;28;20117;-73
2023/08/26 05:48:37;;;;;;;18.75;11.30;;;;;;;;;;5017999;28;20033;-71
2023/08/26 05:51:07;;;;;;;15.02;10.02;;;;;;;;;;5014989;28;20484;-70
2023/08/26 05:53:32;;;;;;;16.13;10.20;;;;;;;;;;5021644;28;20026;-70
2023/08/26 05:55:58;;;;;;;17.42;10.80;;;;;;;;;;5025062;28;20445;-70
2023/08/26 05:58:24;;;;;;;16.23;10.32;;;;;;;;;;5023651;28;20079;-70
2023/08/26 06:00:50;;;;;;;16.02;10.57;;;;;;;;;;5020252;28;20084;-69
2023/08/26 06:03:16;;;;;;;16.33;10.52;;;;;;;;;;5038408;28;20030;-71
2023/08/26 06:05:42;;;;;;;17.63;12.35;;;;;;;;;;5026399;28;20366;-69
2023/08/26 06:08:09;;;;;;;18.27;10.68;;;;;;;;;;5041664;28;20140;-70
2023/08/26 06:10:36;;;;;;;18.63;11.27;;;;;;;;;;5019798;28;20033;-70
2023/08/26 06:13:04;;;;;;;17.10;10.55;;;;;;;;;;5018170;28;20030;-71
2023/08/26 06:15:30;;;;;;;17.63;10.45;;;;;;;;;;5019592;28;20035;-72
2023/08/26 06:17:59;;;;;;;21.48;10.32;;;;;;;;;;5043058;28;20372;-70
2023/08/26 06:20:26;;;;;;;19.17;10.75;;;;;;;;;;5030834;28;20033;-70
2023/08/26 06:22:53;;;;;;;16.15;10.90;;;;;;;;;;5014239;28;20079;-69
2023/08/26 06:25:20;;;;;;;24.27;10.30;;;;;;;;;;5013107;28;20037;-69
2023/08/26 06:27:46;;;;;;;16.63;10.02;;;;;;;;;;5014462;28;20077;-69
2023/08/26 06:30:12;;;;;;;15.82;10.30;;;;;;;;;;5012697;28;20038;-68
2023/08/26 06:32:39;;;;;;;12.52;10.30;;;;;;;;;;5008652;28;20029;-70
2023/08/26 06:35:06;;;;;;;14.13;10.68;;;;;;;;;;5009356;28;20483;-70
2023/08/26 06:37:32;;;;;;;12.27;10.35;;;;;;;;;;5012541;28;20029;-71
2023/08/26 06:39:58;;;;;;;14.10;9.40;;;;;;;;;;5012243;28;20115;-69
2023/08/26 06:42:23;;;;;;;19.90;11.00;;;;;;;;;;5004541;28;20427;-71
2023/08/26 06:44:54;;;;;;;15.23;10.30;;;;;;;;;;4993156;28;20452;-70
2023/08/26 06:47:21;;;;;;;19.10;11.15;;;;;;;;;;4993578;28;20476;-70
2023/08/26 06:49:48;;;;;;;18.85;11.45;;;;;;;;;;5028195;28;20046;-69
2023/08/26 06:52:14;;;;;;;19.88;10.52;;;;;;;;;;5013423;28;20036;-70
2023/08/26 06:54:40;;;;;;;15.10;10.40;;;;;;;;;;5011318;28;20038;-69
2023/08/26 06:57:06;;;;;;;18.00;11.52;;;;;;;;;;4995170;28;20107;-70
2023/08/26 06:59:32;;;;;;;16.85;10.85;;;;;;;;;;5013202;28;20018;-71
2023/08/26 07:01:58;;;;;;;12.90;10.10;;;;;;;;;;5012543;28;20041;-69
2023/08/26 07:04:24;;;;;;;20.02;10.57;;;;;;;;;;5012830;28;20116;-71
2023/08/26 07:06:50;;;;;;;10.90;9.10;;;;;;;;;;5012681;28;20411;-70
2023/08/26 07:09:16;;;;;;;14.07;9.20;;;;;;;;;;5011862;28;20037;-71
2023/08/26 07:11:42;;;;;;;13.02;9.27;;;;;;;;;;5012957;28;20141;-70
2023/08/26 07:14:07;;;;;;;14.52;9.00;;;;;;;;;;5012944;28;20456;-70
2023/08/26 07:16:33;;;;;;;14.13;9.55;;;;;;;;;;5011898;28;20037;-70
2023/08/26 07:18:59;;;;;;;14.82;8.95;;;;;;;;;;5011895;28;20071;-70
2023/08/26 07:21:25;;;;;;;11.93;9.13;;;;;;;;;;5012346;28;20038;-70
2023/08/26 07:23:50;;;;;;;11.00;9.27;;;;;;;;;;5011218;28;20160;-70
2023/08/26 07:26:16;;;;;;;11.13;9.13;;;;;;;;;;5012496;28;20543;-70
2023/08/26 07:28:44;;;;;;;14.32;9.18;;;;;;;;;;5010486;28;20387;-71
2023/08/26 07:31:09;;;;;;;12.45;8.90;;;;;;;;;;5012447;28;20038;-71
2023/08/26 07:33:35;;;;;;;11.38;9.20;;;;;;;;;;5013121;28;20036;-71
2023/08/26 07:36:10;;;;;;;12.57;9.27;;;;;;;;;;5012564;28;20450;-70
2023/08/26 07:38:38;;;;;;;13.98;9.77;;;;;;;;;;5012848;28;20030;-71
2023/08/26 07:41:20;;;;;;;12.00;8.90;;;;;;;;;;5012067;28;20033;-71
2023/08/26 07:43:46;;;;;;;15.23;9.00;;;;;;;;;;5012998;28;20037;-70
2023/08/26 07:46:12;;;;;;;12.65;8.70;;;;;;;;;;5012459;28;20030;-69
2023/08/26 07:48:38;;;;;;;10.82;8.00;;;;;;;;;;5011459;28;20042;-70
2023/08/26 07:51:04;;;;;;;12.52;8.63;;;;;;;;;;5012952;28;20032;-71
2023/08/26 07:53:30;;;;;;;11.15;8.70;;;;;;;;;;5012027;28;20057;-70
2023/08/26 07:55:55;;;;;;;13.70;8.63;;;;;;;;;;5012678;28;20053;-70
2023/08/26 07:58:21;;;;;;;12.55;8.32;;;;;;;;;;4995914;28;20042;-70
2023/08/26 08:00:48;;;;;;;10.57;8.40;;;;;;;;;;5012231;28;20030;-71
2023/08/26 08:03:14;;;;;;;17.65;8.77;;;;;;;;;;5027704;28;20109;-72
2023/08/26 08:05:39;;;;;;;11.07;8.60;;;;;;;;;;5011417;28;20113;-72
2023/08/26 08:08:05;;;;;;;10.00;7.85;;;;;;;;;;5012002;28;20089;-72
2023/08/26 08:10:31;;;;;;;13.63;8.63;;;;;;;;;;5012405;28;20049;-72
2023/08/26 08:12:56;;;;;;;11.98;7.97;;;;;;;;;;5011378;28;20030;-71
2023/08/26 08:15:22;;;;;;;9.75;8.15;;;;;;;;;;5011522;28;20034;-70
2023/08/26 08:17:48;;;;;;;14.63;8.50;;;;;;;;;;5012162;28;20038;-70
2023/08/26 08:20:14;;;;;;;21.42;8.40;;;;;;;;;;5001763;28;20030;-71
2023/08/26 08:22:43;;;;;;;9.85;7.78;;;;;;;;;;4992960;28;20034;-71
2023/08/26 08:25:09;;;;;;;11.10;8.18;;;;;;;;;;4992506;28;20456;-72
2023/08/26 08:27:39;;;;;;;15.13;8.10;;;;;;;;;;4992514;28;20045;-71
2023/08/26 08:30:06;;;;;;;15.75;8.15;;;;;;;;;;4990436;28;20026;-70
2023/08/26 08:32:33;;;;;;;11.27;8.05;;;;;;;;;;4990884;28;20019;-71
2023/08/26 08:34:59;;;;;;;15.40;8.55;;;;;;;;;;4991795;28;20042;-71
2023/08/26 08:37:25;;;;;;;7.72;6.93;;;;;;;;;;4992564;28;20304;-72
2023/08/26 08:39:51;;;;;;;13.88;7.65;;;;;;;;;;4991740;28;20042;-70
2023/08/26 08:42:18;;;;;;;8.82;7.65;;;;;;;;;;4992315;28;20396;-70
2023/08/26 08:44:46;;;;;;;9.75;7.55;;;;;;;;;;4992887;28;20038;-71
2023/08/26 08:47:12;;;;;;;9.90;8.05;;;;;;;;;;4999127;28;20025;-71
2023/08/26 08:49:41;;;;;;;11.13;8.20;;;;;;;;;;5011456;28;20049;-71
2023/08/26 08:52:07;;;;;;;14.93;7.50;;;;;;;;;;5012030;28;20022;-70
2023/08/26 08:54:34;;;;;;;10.35;6.90;;;;;;;;;;5012155;28;20121;-70
2023/08/26 08:57:03;;;;;;;11.50;7.00;;;;;;;;;;5027022;28;20026;-70
2023/08/26 08:59:32;;;;;;;9.57;6.70;;;;;;;;;;5011918;28;20084;-71
2023/08/26 09:01:59;;;;;;;11.05;7.05;;;;;;;;;;5011618;28;20131;-72
2023/08/26 09:04:25;;;;;;;13.45;7.43;;;;;;;;;;5011615;28;20126;-72
2023/08/26 09:06:52;;;;;;;8.45;7.10;;;;;;;;;;5011803;28;20025;-72
2023/08/26 09:09:18;;;;;;;9.80;6.72;;;;;;;;;;5026660;28;20041;-72
2023/08/26 09:11:44;;;;;;;8.80;7.18;;;;;;;;;;5011500;28;20033;-72
2023/08/26 09:14:10;;;;;;;11.23;7.32;;;;;;;;;;5011259;28;20042;-71
2023/08/26 09:16:41;;;;;;;8.93;6.80;;;;;;;;;;5011583;28;20030;-72
2023/08/26 09:19:09;;;;;;;7.63;6.85;;;;;;;;;;5011761;28;20045;-70
2023/08/26 09:21:40;;;;;;;10.38;7.13;;;;;;;;;;5011796;28;20045;-71
2023/08/26 09:24:11;;;;;;;9.10;7.05;;;;;;;;;;5011541;28;20053;-71
2023/08/26 09:26:36;;;;;;;9.80;7.60;;;;;;;;;;5012288;28;20076;-71
2023/08/26 09:29:11;;;;;;;12.55;8.13;;;;;;;;;;5015797;28;20112;-71
2023/08/26 09:31:48;;;;;;;11.10;7.20;;;;;;;;;;5016081;28;20029;-71
2023/08/26 09:34:24;;;;;;;10.80;7.70;;;;;;;;;;5012885;28;20034;-71
2023/08/26 09:36:49;;;;;;;10.02;7.65;;;;;;;;;;5022055;28;20044;-71
2023/08/26 09:39:15;;;;;;;11.73;7.55;;;;;;;;;;4996293;28;20025;-71
2023/08/26 09:41:45;;;;;;;12.05;8.48;;;;;;;;;;5025319;28;20450;-70
2023/08/26 09:44:18;;;;;;;10.80;7.50;;;;;;;;;;5035279;28;20037;-71
2023/08/26 09:46:46;;;;;;;12.15;8.32;;;;;;;;;;5035645;28;20103;-71
2023/08/26 09:49:13;;;;;;;11.05;8.20;;;;;;;;;;5035145;28;20025;-72
2023/08/26 09:51:51;;;;;;;10.95;7.68;;;;;;;;;;5033829;28;20471;-72
2023/08/26 09:54:18;;;;;;;15.20;8.50;;;;;;;;;;5034911;28;20040;-70
2023/08/26 09:56:46;;;;;;;13.63;7.50;;;;;;;;;;5034805;28;20029;-70
2023/08/26 09:59:13;;;;;;;10.05;8.00;;;;;;;;;;5034422;28;20083;-71
2023/08/26 10:01:40;;;;;;;9.40;8.00;;;;;;;;;;5033509;28;20025;-71
2023/08/26 10:04:10;;;;;;;9.48;7.28;;;;;;;;;;5035217;28;20463;-71
2023/08/26 10:06:41;;;;;;;15.60;10.00;;;;;;;;;;5034795;28;20140;-70
2023/08/26 10:09:16;;;;;;;12.70;8.48;;;;;;;;;;5023246;28;20037;-71
2023/08/26 10:11:44;;;;;;;8.60;6.95;;;;;;;;;;5023191;28;20064;-71
2023/08/26 10:14:13;;;;;;;10.90;8.63;;;;;;;;;;5034692;28;20497;-72
2023/08/26 10:16:41;;;;;;;11.02;7.50;;;;;;;;;;5034910;28;20445;-71
2023/08/26 10:19:07;;;;;;;9.88;6.30;;;;;;;;;;5016752;28;20359;-70
2023/08/26 10:21:34;;;;;;;8.68;5.95;;;;;;;;;;5025262;28;20033;-72
2023/08/26 10:24:01;;;;;;;9.35;5.30;;;;;;;;;;5034828;28;20108;-70
2023/08/26 10:26:27;;;;;;;8.20;4.97;;;;;;;;;;5034548;28;20029;-71
2023/08/26 10:28:55;;;;;;;7.00;4.90;;;;;;;;;;5034228;28;20033;-71
2023/08/26 10:31:30;;;;;;;9.85;5.05;;;;;;;;;;5033687;28;20041;-71
2023/08/26 10:34:05;;;;;;;7.32;3.80;;;;;;;;;;5034857;28;20029;-71
2023/08/26 10:36:37;;;;;;;5.60;3.70;;;;;;;;;;5034172;28;20064;-70
2023/08/26 10:39:04;;;;;;;6.38;4.28;;;;;;;;;;5033321;28;20048;-72
2023/08/26 10:41:30;;;;;;;6.47;4.55;;;;;;;;;;5017350;28;20037;-71
2023/08/26 10:44:01;;;;;;;8.45;4.75;;;;;;;;;;5028505;28;20037;-72
2023/08/26 10:46:56;;;;;;;14.93;10.25;;;;;;;;;;5014183;28;20096;-69
2023/08/26 10:49:22;;;;;;;9.10;4.70;;;;;;;;;;5008240;28;20041;-70
2023/08/26 10:52:07;;;;;;;12.65;9.30;;;;;;;;;;5014690;28;20022;-75
2023/08/26 10:54:34;;;;;;;8.23;4.13;;;;;;;;;;5014103;28;20379;-70
2023/08/26 10:57:07;;;;;;;8.50;4.57;;;;;;;;;;5014028;28;20030;-71
2023/08/26 10:59:39;;;;;;;7.93;4.57;;;;;;;;;;5014095;28;20041;-70
2023/08/26 11:02:07;;;;;;;6.63;4.63;;;;;;;;;;5012913;28;20042;-71
2023/08/26 11:04:40;;;;;;;7.07;4.18;;;;;;;;;;5013891;28;20213;-71
2023/08/26 11:07:06;;;;;;;14.88;12.27;;;;;;;;;;5014417;28;20030;-71
2023/08/26 11:09:31;;;;;;;14.63;11.07;;;;;;;;;;5014057;28;20472;-70
2023/08/26 11:11:57;;;;;;;10.07;4.70;;;;;;;;;;5014338;28;20038;-71
2023/08/26 11:14:31;;;;;;;8.30;4.25;;;;;;;;;;5014617;28;20022;-71
2023/08/26 11:16:59;;;;;;;7.38;5.07;;;;;;;;;;5013843;28;20069;-70
2023/08/26 11:19:25;;;;;;;8.10;4.65;;;;;;;;;;5013947;28;20077;-73
2023/08/26 11:21:50;;;;;;;9.00;5.40;;;;;;;;;;5029289;28;20480;-70
2023/08/26 11:24:16;;;;;;;8.27;4.25;;;;;;;;;;5017347;28;20055;-72
2023/08/26 11:26:51;;;;;;;6.75;4.40;;;;;;;;;;5017893;28;20029;-72
2023/08/26 11:29:17;;;;;;;7.18;4.00;;;;;;;;;;5012820;28;20045;-71
2023/08/26 11:31:43;;;;;;;9.48;4.43;;;;;;;;;;5028633;28;20025;-73
2023/08/26 11:34:09;;;;;;;9.32;5.03;;;;;;;;;;5024412;28;20403;-72
2023/08/26 11:36:35;;;;;;;11.13;4.70;;;;;;;;;;5024597;28;20036;-71
2023/08/26 11:39:01;;;;;;;9.40;5.25;;;;;;;;;;5033157;28;20041;-72
2023/08/26 11:41:26;;;;;;;8.23;6.10;;;;;;;;;;5032738;28;20031;-70
2023/08/26 11:43:52;;;;;;;7.00;4.20;;;;;;;;;;5033017;28;20029;-73
2023/08/26 11:46:19;;;;;;;11.20;7.78;;;;;;;;;;5032561;28;20525;-72
2023/08/26 11:48:44;;;;;;;11.50;6.05;;;;;;;;;;5032941;28;20033;-71
2023/08/26 11:51:10;;;;;;;6.80;3.85;;;;;;;;;;5032717;28;20025;-73
2023/08/26 11:53:36;;;;;;;5.85;4.05;;;;;;;;;;5032826;28;20044;-71
2023/08/26 11:56:02;;;;;;;5.45;3.88;;;;;;;;;;5032945;28;20021;-73
2023/08/26 11:58:28;;;;;;;8.80;4.32;;;;;;;;;;5031177;28;20495;-72
2023/08/26 12:00:54;;;;;;;7.18;3.97;;;;;;;;;;5032724;28;20041;-73
2023/08/26 12:03:19;;;;;;;5.65;3.65;;;;;;;;;;5032309;28;20033;-71
2023/08/26 12:05:49;;;;;;;9.85;5.70;;;;;;;;;;5032417;28;20025;-71
2023/08/26 12:08:19;;;;;;;9.15;7.28;;;;;;;;;;5032258;28;20037;-72
2023/08/26 12:10:52;;;;;;;6.40;3.72;;;;;;;;;;5031271;28;20300;-72
2023/08/26 12:13:18;;;;;;;10.00;3.75;;;;;;;;;;5032451;28;20037;-74
2023/08/26 12:15:46;;;;;;;6.78;3.60;;;;;;;;;;5032582;28;20124;-73
2023/08/26 12:18:12;;;;;;;6.07;3.95;;;;;;;;;;5032977;28;20041;-70
2023/08/26 12:20:38;;;;;;;7.60;4.97;;;;;;;;;;5032827;28;20033;-72
2023/08/26 12:23:06;;;;;;;8.13;3.80;;;;;;;;;;5032309;28;20088;-71
2023/08/26 12:25:41;;;;;;;5.82;4.00;;;;;;;;;;5032411;28;20037;-72
2023/08/26 12:28:12;;;;;;;5.85;3.58;;;;;;;;;;5030622;28;20065;-74
2023/08/26 12:30:39;;;;;;;7.28;3.90;;;;;;;;;;5032331;28;20533;-70
2023/08/26 12:33:08;;;;;;;12.85;6.97;;;;;;;;;;5032352;28;20040;-72
2023/08/26 12:35:35;;;;;;;6.55;4.22;;;;;;;;;;5030687;28;20041;-71
2023/08/26 12:38:02;;;;;;;7.18;3.83;;;;;;;;;;5031962;28;20033;-72
2023/08/26 12:40:35;;;;;;;10.27;4.60;;;;;;;;;;5031679;28;20038;-71
2023/08/26 12:43:02;;;;;;;;;;;;;;;;;;5032441;28;20445;-70
2023/08/26 12:45:29;;;;;;;5.57;4.25;;;;;;;;;;5031617;28;19913;-72
2023/08/26 12:47:55;;;;;;;8.60;3.92;;;;;;;;;;5031790;28;20037;-73
2023/08/26 12:50:21;;;;;;;8.43;3.80;;;;;;;;;;5031634;28;20033;-71
2023/08/26 12:52:48;;;;;;;6.68;4.05;;;;;;;;;;5031708;28;20124;-71
2023/08/26 12:55:16;;;;;;;6.47;4.00;;;;;;;;;;5030276;28;20037;-71
2023/08/26 12:57:42;;;;;;;4.35;3.80;;;;;;;;;;5031552;28;20498;-73
2023/08/26 13:00:09;;;;;;;9.02;4.80;;;;;;;;;;5031233;28;20045;-71
2023/08/26 13:02:39;;;;;;;7.47;3.42;;;;;;;;;;5031129;28;20057;-71
2023/08/26 13:05:06;;;;;;;4.88;3.65;;;;;;;;;;5031466;28;20124;-71
2023/08/26 13:07:32;;;;;;;6.63;3.83;;;;;;;;;;5031191;28;20026;-72
2023/08/26 13:09:58;;;;;;;7.20;4.45;;;;;;;;;;5031364;28;20053;-72
2023/08/26 13:12:24;;;;;;;7.07;3.83;;;;;;;;;;5046612;28;20517;-71
2023/08/26 13:14:50;;;;;;;11.20;3.42;;;;;;;;;;5031460;28;20033;-73
2023/08/26 13:17:15;;;;;;;10.27;4.20;;;;;;;;;;5031652;28;20451;-73
2023/08/26 13:19:41;;;;;;;10.50;4.07;;;;;;;;;;5030328;28;20060;-72
2023/08/26 13:22:07;;;;;;;6.38;3.95;;;;;;;;;;5030462;28;20018;-73
2023/08/26 13:24:33;;;;;;;5.63;3.90;;;;;;;;;;5029914;28;20029;-73
2023/08/26 13:26:58;;;;;;;5.82;4.18;;;;;;;;;;5031022;28;20432;-72
2023/08/26 13:29:24;;;;;;;6.20;3.67;;;;;;;;;;5030489;28;20505;-73
2023/08/26 13:31:50;;;;;;;4.70;4.20;;;;;;;;;;5030968;28;20033;-72
2023/08/26 13:34:16;;;;;;;5.75;3.45;;;;;;;;;;5031260;28;20052;-71
2023/08/26 13:36:42;;;;;;;5.93;3.83;;;;;;;;;;5012134;28;20029;-71
2023/08/26 13:39:10;;;;;;;5.75;4.18;;;;;;;;;;5011502;28;20053;-72
2023/08/26 13:41:36;;;;;;;5.68;3.90;;;;;;;;;;5011531;28;20479;-71
2023/08/26 13:44:03;;;;;;;6.80;4.40;;;;;;;;;;5011531;28;20168;-73
2023/08/26 13:46:28;;;;;;;6.75;4.22;;;;;;;;;;5011319;28;20494;-72
2023/08/26 13:48:56;;;;;;;8.93;4.28;;;;;;;;;;5010037;28;20037;-72
2023/08/26 13:51:21;;;;;;;9.35;4.10;;;;;;;;;;5012139;28;20240;-71
2023/08/26 13:53:47;;;;;;;7.22;4.43;;;;;;;;;;5012106;28;20152;-70
2023/08/26 13:56:13;;;;;;;6.10;4.13;;;;;;;;;;5011547;28;20433;-71
2023/08/26 13:58:38;;;;;;;8.93;3.65;;;;;;;;;;5011459;28;20038;-71
2023/08/26 14:01:04;;;;;;;6.75;4.15;;;;;;;;;;4993575;28;20040;-71
2023/08/26 14:03:30;;;;;;;6.63;3.63;;;;;;;;;;5010282;28;20419;-70
2023/08/26 14:05:56;;;;;;;8.25;3.97;;;;;;;;;;5011247;28;20028;-70
2023/08/26 14:08:23;;;;;;;6.05;4.10;;;;;;;;;;5011334;28;20037;-71
2023/08/26 14:10:49;;;;;;;8.68;4.38;;;;;;;;;;5011626;28;20404;-71
2023/08/26 14:13:15;;;;;;;7.30;3.80;;;;;;;;;;5011727;28;20112;-71
2023/08/26 14:15:42;;;;;;;5.32;4.00;;;;;;;;;;5014990;28;20499;-71
2023/08/26 14:18:08;;;;;;;9.07;4.05;;;;;;;;;;5014727;28;20038;-72
2023/08/26 14:20:34;;;;;;;6.30;3.88;;;;;;;;;;5014826;28;20394;-72
2023/08/26 14:23:01;;;;;;;5.90;4.18;;;;;;;;;;5014878;28;20049;-71
2023/08/26 14:25:28;;;;;;;7.93;4.03;;;;;;;;;;5014859;28;20025;-72
2023/08/26 14:27:54;;;;;;;5.70;3.90;;;;;;;;;;5014627;28;20076;-71